Time;durP1;ratioP1;P1;durP2;ratioP2;P2;SDS_P1;SDS_P2;PMS_P1;PMS_P2;Temp;Humidity;BMP_temperature;BMP_pressure;BME280_temperature;BME280_humidity;BME280_pressure;Samples;Min_cycle;Max_cycle;Signal;HPM_P1;HPM_P2
2021/06/07 00:01:41;;;;;;;12.57;10.75;;;14.10;77.00;;;;;;5037945;28;20079;-72
2021/06/07 00:04:08;;;;;;;11.50;10.10;;;14.10;77.00;;;;;;5038148;28;20032;-72
2021/06/07 00:06:35;;;;;;;13.13;10.82;;;14.10;77.00;;;;;;5036860;28;20488;-72
2021/06/07 00:09:05;;;;;;;15.95;11.70;;;14.10;76.90;;;;;;5038114;28;20025;-72
2021/06/07 00:11:30;;;;;;;12.95;10.35;;;14.00;77.20;;;;;;5039515;28;20041;-71
2021/06/07 00:13:56;;;;;;;12.63;10.90;;;14.00;77.30;;;;;;5038893;28;20078;-71
2021/06/07 00:16:22;;;;;;;12.55;10.55;;;14.00;77.30;;;;;;5036785;28;20052;-71
2021/06/07 00:18:48;;;;;;;13.75;11.13;;;14.00;77.40;;;;;;5037525;28;20387;-71
2021/06/07 00:21:21;;;;;;;11.63;10.10;;;14.00;77.60;;;;;;5039178;28;20128;-72
2021/06/07 00:23:47;;;;;;;13.80;11.27;;;13.90;77.60;;;;;;5037717;28;21074;-70
2021/06/07 00:26:13;;;;;;;15.25;11.18;;;13.90;77.70;;;;;;5039515;28;20140;-71
2021/06/07 00:28:39;;;;;;;12.98;10.88;;;13.90;77.90;;;;;;5036659;28;20075;-71
2021/06/07 00:31:06;;;;;;;13.60;10.88;;;13.80;78.00;;;;;;5037231;28;20100;-71
2021/06/07 00:33:32;;;;;;;12.85;11.30;;;13.80;78.20;;;;;;5039311;28;20070;-72
2021/06/07 00:35:59;;;;;;;13.88;11.15;;;13.80;78.30;;;;;;5041109;28;20047;-71
2021/06/07 00:38:25;;;;;;;13.60;11.43;;;13.70;78.40;;;;;;5037628;28;20067;-72
2021/06/07 00:40:51;;;;;;;12.98;10.50;;;13.70;78.40;;;;;;5039983;28;20388;-72
2021/06/07 00:43:17;;;;;;;14.43;11.27;;;13.80;78.40;;;;;;5038315;28;20052;-72
2021/06/07 00:45:43;;;;;;;13.35;11.48;;;13.80;78.30;;;;;;5049693;28;20037;-71
2021/06/07 00:48:10;;;;;;;15.30;12.07;;;13.80;78.30;;;;;;5038275;28;20472;-71
2021/06/07 00:50:50;;;;;;;14.63;10.80;;;13.70;78.20;;;;;;5052082;28;20381;-72
2021/06/07 00:53:17;;;;;;;13.85;10.40;;;13.80;78.30;;;;;;5039760;28;20071;-72
2021/06/07 00:55:54;;;;;;;13.95;10.40;;;13.80;78.10;;;;;;5036779;28;20445;-70
2021/06/07 00:58:29;;;;;;;13.52;10.73;;;13.70;78.10;;;;;;5038746;28;20396;-71
2021/06/07 01:00:55;;;;;;;;;;;13.70;78.10;;;;;;5035915;28;20480;-71
2021/06/07 01:03:23;;;;;;;11.98;10.40;;;13.70;78.20;;;;;;5037397;28;19920;-70
2021/06/07 01:05:50;;;;;;;12.65;11.18;;;13.70;78.20;;;;;;5037742;28;20041;-70
2021/06/07 01:08:16;;;;;;;12.57;11.27;;;13.60;78.30;;;;;;5036627;28;20195;-71
2021/06/07 01:10:43;;;;;;;12.57;11.27;;;13.60;78.50;;;;;;5036578;28;20440;-71
2021/06/07 01:13:09;;;;;;;13.88;11.82;;;13.60;78.60;;;;;;5037922;28;20097;-73
2021/06/07 01:15:35;;;;;;;14.75;12.38;;;13.40;79.30;;;;;;5037444;28;20052;-71
2021/06/07 01:18:01;;;;;;;15.50;12.10;;;13.50;79.30;;;;;;5035809;28;20037;-72
2021/06/07 01:20:26;;;;;;;13.68;11.65;;;13.40;79.30;;;;;;5038560;28;20029;-70
2021/06/07 01:22:54;;;;;;;15.13;11.80;;;13.40;79.30;;;;;;5038125;28;20064;-71
2021/06/07 01:25:39;;;;;;;14.45;11.32;;;13.40;79.50;;;;;;5038366;28;20124;-71
2021/06/07 01:28:07;;;;;;;14.50;12.35;;;13.40;79.50;;;;;;5037145;28;20045;-70
2021/06/07 01:30:38;;;;;;;14.43;10.90;;;13.40;79.40;;;;;;5039069;28;20033;-71
2021/06/07 01:33:07;;;;;;;15.43;12.90;;;13.40;79.50;;;;;;5037386;28;20057;-71
2021/06/07 01:35:33;;;;;;;14.77;12.40;;;13.40;79.50;;;;;;5038314;28;20127;-70
2021/06/07 01:38:00;;;;;;;14.70;12.07;;;13.30;79.50;;;;;;5039116;28;20041;-71
2021/06/07 01:40:31;;;;;;;14.20;11.98;;;13.40;79.60;;;;;;5036690;28;20045;-70
2021/06/07 01:42:57;;;;;;;14.02;11.57;;;13.40;79.60;;;;;;5037443;28;20037;-71
2021/06/07 01:45:26;;;;;;;14.10;11.55;;;13.40;79.70;;;;;;5036485;28;20048;-71
2021/06/07 01:47:53;;;;;;;13.90;12.30;;;13.40;79.60;;;;;;5036769;28;20037;-71
2021/06/07 01:50:19;;;;;;;15.35;12.88;;;13.30;79.50;;;;;;5035355;28;20475;-70
2021/06/07 01:52:46;;;;;;;14.35;12.35;;;13.30;79.70;;;;;;5038819;28;20041;-71
2021/06/07 01:55:24;;;;;;;13.48;12.07;;;13.30;79.90;;;;;;5040552;28;20041;-71
2021/06/07 01:57:52;;;;;;;16.52;13.68;;;13.20;80.10;;;;;;5042339;28;20775;-71
2021/06/07 02:00:37;;;;;;;16.48;13.27;;;13.10;80.50;;;;;;5040218;28;20525;-70
2021/06/07 02:03:05;;;;;;;18.33;14.13;;;13.10;80.60;;;;;;5039952;28;20432;-72
2021/06/07 02:05:35;;;;;;;17.65;13.77;;;13.00;81.10;;;;;;5040988;28;20033;-71
2021/06/07 02:08:05;;;;;;;15.77;13.45;;;13.00;81.10;;;;;;5040992;28;20041;-72
2021/06/07 02:10:35;;;;;;;16.83;13.13;;;13.10;80.90;;;;;;5039495;28;20112;-71
2021/06/07 02:13:01;;;;;;;17.20;13.38;;;13.10;80.90;;;;;;5054368;28;20472;-72
2021/06/07 02:15:27;;;;;;;15.02;13.30;;;13.10;80.80;;;;;;5041709;28;20079;-73
2021/06/07 02:17:53;;;;;;;16.20;14.40;;;13.10;80.80;;;;;;5040756;28;20037;-71
2021/06/07 02:20:22;;;;;;;15.63;13.20;;;13.10;80.80;;;;;;5041659;28;20075;-70
2021/06/07 02:22:48;;;;;;;17.75;13.50;;;13.10;80.90;;;;;;5039031;28;20063;-71
2021/06/07 02:25:18;;;;;;;17.13;14.10;;;13.10;80.90;;;;;;5041185;28;20033;-71
2021/06/07 02:27:44;;;;;;;15.35;13.48;;;13.10;80.90;;;;;;5043380;28;20040;-70
2021/06/07 02:30:22;;;;;;;17.95;14.50;;;13.10;80.90;;;;;;5036576;28;20033;-70
2021/06/07 02:32:48;;;;;;;16.23;13.27;;;13.10;81.10;;;;;;5041416;28;20071;-71
2021/06/07 02:35:17;;;;;;;16.70;13.23;;;13.00;81.20;;;;;;5039623;28;20498;-71
2021/06/07 02:37:44;;;;;;;16.83;13.93;;;13.00;81.20;;;;;;5040860;28;20060;-71
2021/06/07 02:40:12;;;;;;;15.52;13.52;;;13.00;81.10;;;;;;5039673;28;20072;-71
2021/06/07 02:42:42;;;;;;;15.23;13.30;;;13.00;81.10;;;;;;5042182;28;20041;-72
2021/06/07 02:45:11;;;;;;;16.80;13.23;;;12.90;81.20;;;;;;5039990;28;20032;-70
2021/06/07 02:47:38;;;;;;;15.07;13.48;;;12.90;81.40;;;;;;5041831;28;20113;-71
2021/06/07 02:50:06;;;;;;;15.68;13.95;;;12.90;81.50;;;;;;5040228;28;20033;-70
2021/06/07 02:52:32;;;;;;;19.30;13.93;;;12.80;81.70;;;;;;5041710;28;20048;-71
2021/06/07 02:54:57;;;;;;;17.38;14.35;;;12.80;81.60;;;;;;5041276;28;20065;-71
2021/06/07 02:57:23;;;;;;;19.95;14.57;;;12.80;81.70;;;;;;5039706;28;20471;-72
2021/06/07 02:59:49;;;;;;;17.30;14.98;;;12.80;81.70;;;;;;5039749;28;20033;-71
2021/06/07 03:02:14;;;;;;;18.27;15.35;;;12.70;81.90;;;;;;5039381;28;20033;-70
2021/06/07 03:04:40;;;;;;;18.67;15.60;;;12.70;82.20;;;;;;5041215;28;20357;-71
2021/06/07 03:07:06;;;;;;;15.98;14.35;;;12.70;82.10;;;;;;5041043;28;20048;-70
2021/06/07 03:09:31;;;;;;;17.33;14.77;;;12.70;82.20;;;;;;5039986;28;20477;-70
2021/06/07 03:11:57;;;;;;;17.50;15.45;;;12.70;82.30;;;;;;5039471;28;20040;-71
2021/06/07 03:14:23;;;;;;;16.95;14.50;;;12.70;82.30;;;;;;5038540;28;20128;-71
2021/06/07 03:16:49;;;;;;;16.83;15.02;;;12.70;82.20;;;;;;5039386;28;20132;-71
2021/06/07 03:19:14;;;;;;;17.92;16.02;;;12.70;82.30;;;;;;5036921;28;20461;-71
2021/06/07 03:21:40;;;;;;;18.83;16.23;;;12.70;82.20;;;;;;5040103;28;20033;-71
2021/06/07 03:24:06;;;;;;;19.38;16.88;;;12.70;82.30;;;;;;5036853;28;20041;-69
2021/06/07 03:26:32;;;;;;;21.25;17.23;;;12.70;82.60;;;;;;5039607;28;20044;-70
2021/06/07 03:28:57;;;;;;;21.05;16.88;;;12.70;82.50;;;;;;5040008;28;20033;-70
2021/06/07 03:31:24;;;;;;;18.98;16.67;;;12.70;82.50;;;;;;5038927;28;20091;-69
2021/06/07 03:33:49;;;;;;;19.20;15.38;;;12.70;82.50;;;;;;5042188;28;20501;-72
2021/06/07 03:36:15;;;;;;;18.75;15.98;;;12.80;82.30;;;;;;5039331;28;20063;-70
2021/06/07 03:38:41;;;;;;;18.75;16.33;;;12.70;82.20;;;;;;5040313;28;20275;-69
2021/06/07 03:41:08;;;;;;;20.80;15.77;;;12.70;82.20;;;;;;5039404;28;20037;-71
2021/06/07 03:43:35;;;;;;;18.27;15.80;;;12.70;82.30;;;;;;5039489;28;20485;-69
2021/06/07 03:46:01;;;;;;;18.05;15.27;;;12.70;82.30;;;;;;5040888;28;20068;-71
2021/06/07 03:48:27;;;;;;;20.33;16.25;;;12.70;82.10;;;;;;5040177;28;20145;-70
2021/06/07 03:50:53;;;;;;;20.92;16.10;;;12.70;82.00;;;;;;5039331;28;20059;-70
2021/06/07 03:53:18;;;;;;;22.80;16.58;;;12.70;82.20;;;;;;5039609;28;20472;-69
2021/06/07 03:55:44;;;;;;;19.00;15.93;;;12.70;82.20;;;;;;5035884;28;20043;-71
2021/06/07 03:58:11;;;;;;;20.85;16.80;;;12.70;82.20;;;;;;5040502;28;20128;-69
2021/06/07 04:00:37;;;;;;;18.50;14.90;;;12.80;82.20;;;;;;5037598;28;20067;-69
2021/06/07 04:03:05;;;;;;;21.52;17.98;;;12.70;82.10;;;;;;5039824;28;20465;-69
2021/06/07 04:05:32;;;;;;;19.00;16.02;;;12.80;82.20;;;;;;5037688;28;20036;-73
2021/06/07 04:07:58;;;;;;;17.15;14.98;;;12.80;82.20;;;;;;5042259;28;20063;-69
2021/06/07 04:10:26;;;;;;;19.85;15.80;;;12.90;82.10;;;;;;5043184;28;20460;-69
2021/06/07 04:12:53;;;;;;;17.15;14.95;;;13.00;82.00;;;;;;5038914;28;20377;-70
2021/06/07 04:15:25;;;;;;;19.42;14.35;;;13.00;81.80;;;;;;5035985;28;20025;-71
2021/06/07 04:17:52;;;;;;;16.63;14.60;;;13.00;81.70;;;;;;5037148;28;20051;-69
2021/06/07 04:20:21;;;;;;;17.63;14.55;;;13.10;81.40;;;;;;5036921;28;20179;-69
2021/06/07 04:22:47;;;;;;;17.45;14.52;;;13.10;81.30;;;;;;5034549;28;20380;-70
2021/06/07 04:25:15;;;;;;;16.13;14.27;;;13.10;81.30;;;;;;5034953;28;20040;-70
2021/06/07 04:27:41;;;;;;;16.90;15.10;;;13.20;81.00;;;;;;5035893;28;20110;-69
2021/06/07 04:30:13;;;;;;;17.27;15.02;;;13.30;80.60;;;;;;5036006;28;20119;-72
2021/06/07 04:32:39;;;;;;;17.73;15.57;;;13.30;80.40;;;;;;5038109;28;20073;-69
2021/06/07 04:35:07;;;;;;;16.98;14.43;;;13.30;80.50;;;;;;5037073;28;20115;-69
2021/06/07 04:37:39;;;;;;;16.73;14.85;;;13.30;80.60;;;;;;5036362;28;20123;-69
2021/06/07 04:40:05;;;;;;;16.77;14.65;;;13.40;80.60;;;;;;5037296;28;20052;-69
2021/06/07 04:42:31;;;;;;;19.60;15.43;;;13.40;80.60;;;;;;5037798;28;20033;-72
2021/06/07 04:44:57;;;;;;;16.85;14.70;;;13.40;80.70;;;;;;5037717;28;20049;-69
2021/06/07 04:47:22;;;;;;;19.95;15.90;;;13.60;80.70;;;;;;5049894;28;20060;-70
2021/06/07 04:49:48;;;;;;;19.35;15.48;;;13.50;80.80;;;;;;5038617;28;20459;-68
2021/06/07 04:52:13;;;;;;;17.58;15.20;;;13.60;80.80;;;;;;5035834;28;20032;-70
2021/06/07 04:54:39;;;;;;;18.75;14.48;;;13.60;80.80;;;;;;5034861;28;21418;-69
2021/06/07 04:57:05;;;;;;;20.73;16.20;;;13.60;80.90;;;;;;5036104;28;20525;-69
2021/06/07 04:59:31;;;;;;;18.13;15.27;;;13.60;80.70;;;;;;5037283;28;20114;-71
2021/06/07 05:01:57;;;;;;;19.05;15.30;;;13.70;80.80;;;;;;5035478;28;20060;-69
2021/06/07 05:04:22;;;;;;;21.23;15.45;;;13.70;80.70;;;;;;5036289;28;20108;-69
2021/06/07 05:06:48;;;;;;;18.30;14.77;;;13.80;80.60;;;;;;5036911;28;20060;-69
2021/06/07 05:09:14;;;;;;;22.58;15.15;;;13.90;80.70;;;;;;5034453;28;20029;-70
2021/06/07 05:11:41;;;;;;;16.13;12.40;;;15.00;79.60;;;;;;5037367;28;20067;-70
2021/06/07 05:14:07;;;;;;;16.73;12.10;;;16.80;72.10;;;;;;5036954;28;20045;-69
2021/06/07 05:16:33;;;;;;;14.35;10.65;;;18.20;65.60;;;;;;5032146;28;20432;-70
2021/06/07 05:18:58;;;;;;;15.30;10.73;;;19.80;60.80;;;;;;5035442;28;20056;-69
2021/06/07 05:21:24;;;;;;;11.77;9.35;;;20.40;57.80;;;;;;5035037;28;20029;-71
2021/06/07 05:23:50;;;;;;;16.23;10.18;;;20.90;56.70;;;;;;5036543;28;20037;-71
2021/06/07 05:26:16;;;;;;;13.90;9.35;;;21.30;53.50;;;;;;5034346;28;20484;-69
2021/06/07 05:28:41;;;;;;;11.57;8.68;;;21.90;53.50;;;;;;5040534;28;20450;-71
2021/06/07 05:31:07;;;;;;;9.68;7.38;;;22.50;52.40;;;;;;5039335;28;20044;-70
2021/06/07 05:33:33;;;;;;;11.02;7.80;;;23.40;49.20;;;;;;5041375;28;20037;-70
2021/06/07 05:35:58;;;;;;;11.82;7.70;;;24.00;47.10;;;;;;5041552;28;20079;-70
2021/06/07 05:38:24;;;;;;;12.00;7.22;;;24.70;45.70;;;;;;5042340;28;20040;-69
2021/06/07 05:40:53;;;;;;;12.75;8.50;;;24.50;45.40;;;;;;5043233;28;20033;-71
2021/06/07 05:43:22;;;;;;;9.23;7.20;;;24.80;44.00;;;;;;5040379;28;20033;-71
2021/06/07 05:45:48;;;;;;;10.25;7.57;;;24.40;45.70;;;;;;5044021;28;20057;-72
2021/06/07 05:48:14;;;;;;;10.65;8.05;;;23.60;45.60;;;;;;5040518;28;20083;-71
2021/06/07 05:50:40;;;;;;;10.27;7.70;;;21.60;51.10;;;;;;5042439;28;20049;-70
2021/06/07 05:53:06;;;;;;;11.23;8.32;;;21.10;52.70;;;;;;5041213;28;20128;-71
2021/06/07 05:55:37;;;;;;;11.10;7.65;;;20.70;53.30;;;;;;5039434;28;20044;-71
2021/06/07 05:58:17;;;;;;;11.13;7.43;;;19.40;56.70;;;;;;5039192;28;20091;-69
2021/06/07 06:00:45;;;;;;;10.98;8.60;;;18.60;59.60;;;;;;5042510;28;20053;-71
2021/06/07 06:03:11;;;;;;;11.43;8.23;;;18.10;61.40;;;;;;5036948;28;20906;-71
2021/06/07 06:05:38;;;;;;;13.88;9.23;;;17.30;63.30;;;;;;5041758;28;20044;-70
2021/06/07 06:08:05;;;;;;;12.75;8.68;;;16.90;65.70;;;;;;5040487;28;20036;-70
2021/06/07 06:10:31;;;;;;;12.00;9.55;;;16.50;67.00;;;;;;5042487;28;20025;-69
2021/06/07 06:12:57;;;;;;;13.63;9.60;;;16.30;69.20;;;;;;5041664;28;20032;-69
2021/06/07 06:15:24;;;;;;;12.07;8.45;;;16.40;68.60;;;;;;5040619;28;20036;-68
2021/06/07 06:17:51;;;;;;;12.90;8.70;;;16.60;68.70;;;;;;5040247;28;20041;-70
2021/06/07 06:20:17;;;;;;;14.13;9.65;;;16.90;68.10;;;;;;5038968;28;20044;-69
2021/06/07 06:22:43;;;;;;;11.73;8.15;;;17.10;68.00;;;;;;5040367;28;20032;-70
2021/06/07 06:25:10;;;;;;;11.50;8.23;;;17.40;66.50;;;;;;5040392;28;20041;-70
2021/06/07 06:27:37;;;;;;;12.82;9.50;;;17.40;65.70;;;;;;5040450;28;20484;-69
2021/06/07 06:30:08;;;;;;;12.73;8.75;;;17.50;65.60;;;;;;5039913;28;20497;-69
2021/06/07 06:32:35;;;;;;;11.65;7.75;;;17.60;64.60;;;;;;5040866;28;20496;-68
2021/06/07 06:35:01;;;;;;;14.60;8.20;;;17.70;64.80;;;;;;5040323;28;20037;-69
2021/06/07 06:37:27;;;;;;;12.45;8.55;;;17.90;64.30;;;;;;5037712;28;20045;-69
2021/06/07 06:39:52;;;;;;;11.73;8.27;;;17.90;64.80;;;;;;5041786;28;20053;-69
2021/06/07 06:42:18;;;;;;;12.80;8.13;;;18.00;64.10;;;;;;5039349;28;20055;-69
2021/06/07 06:44:44;;;;;;;13.27;8.10;;;18.10;63.00;;;;;;5038853;28;20044;-70
2021/06/07 06:47:09;;;;;;;11.23;7.82;;;18.30;63.80;;;;;;5042460;28;20029;-69
2021/06/07 06:49:36;;;;;;;9.80;7.30;;;18.10;62.80;;;;;;5040093;28;20033;-68
2021/06/07 06:52:02;;;;;;;12.30;7.72;;;18.20;62.90;;;;;;5040073;28;20029;-70
2021/06/07 06:54:28;;;;;;;13.25;7.95;;;18.40;62.60;;;;;;5039057;28;20055;-71
2021/06/07 06:56:54;;;;;;;10.55;7.50;;;18.10;62.20;;;;;;5041173;28;20049;-68
2021/06/07 06:59:19;;;;;;;12.20;8.38;;;18.20;63.50;;;;;;5040753;28;20057;-72
2021/06/07 07:01:45;;;;;;;13.60;9.27;;;18.50;62.60;;;;;;5039764;28;20843;-69
2021/06/07 07:04:11;;;;;;;10.13;7.70;;;18.60;62.60;;;;;;5035515;28;20041;-69
2021/06/07 07:06:37;;;;;;;12.00;7.80;;;18.60;62.70;;;;;;5038892;28;20047;-68
2021/06/07 07:09:04;;;;;;;10.52;7.45;;;18.60;62.00;;;;;;5038249;28;20033;-70
2021/06/07 07:11:30;;;;;;;9.70;7.80;;;18.20;63.10;;;;;;5040424;28;20041;-69
2021/06/07 07:13:55;;;;;;;11.95;8.05;;;18.30;62.70;;;;;;5039625;28;20232;-69
2021/06/07 07:16:21;;;;;;;11.88;7.03;;;18.00;63.50;;;;;;5041056;28;21618;-68
2021/06/07 07:18:47;;;;;;;11.35;8.43;;;18.40;64.10;;;;;;5041050;28;20438;-68
2021/06/07 07:21:13;;;;;;;9.85;7.40;;;18.70;62.50;;;;;;5038009;28;20101;-68
2021/06/07 07:23:38;;;;;;;11.48;7.65;;;19.00;61.80;;;;;;5040018;28;20495;-69
2021/06/07 07:26:04;;;;;;;10.25;7.68;;;19.00;61.00;;;;;;5037761;28;20184;-68
2021/06/07 07:28:30;;;;;;;11.52;7.25;;;18.80;61.80;;;;;;5042691;28;20059;-68
2021/06/07 07:30:55;;;;;;;13.07;7.70;;;18.90;62.20;;;;;;5037929;28;20472;-69
2021/06/07 07:33:22;;;;;;;15.60;7.85;;;19.00;61.30;;;;;;5040366;28;20475;-69
2021/06/07 07:35:48;;;;;;;9.27;6.93;;;18.90;60.70;;;;;;5039512;28;20036;-70
2021/06/07 07:38:13;;;;;;;10.60;7.30;;;19.20;60.20;;;;;;5038769;28;20126;-68
2021/06/07 07:40:41;;;;;;;13.05;7.93;;;19.30;59.60;;;;;;5041404;28;20041;-68
2021/06/07 07:43:11;;;;;;;10.65;7.90;;;19.00;59.90;;;;;;5039318;28;20033;-71
2021/06/07 07:45:37;;;;;;;11.27;7.18;;;18.90;60.60;;;;;;5039029;28;20225;-69
2021/06/07 07:48:05;;;;;;;10.73;6.88;;;18.90;60.40;;;;;;5037451;28;20041;-69
2021/06/07 07:50:33;;;;;;;12.80;7.43;;;19.00;59.40;;;;;;5040085;28;20028;-68
2021/06/07 07:52:58;;;;;;;9.52;6.40;;;19.10;59.20;;;;;;5038769;28;20087;-69
2021/06/07 07:55:29;;;;;;;8.65;6.05;;;19.10;58.40;;;;;;5038869;28;20520;-69
2021/06/07 07:57:54;;;;;;;10.38;5.90;;;19.10;57.10;;;;;;5037325;28;20044;-69
2021/06/07 08:00:24;;;;;;;10.73;5.80;;;19.20;57.00;;;;;;5040751;28;20020;-68
2021/06/07 08:02:50;;;;;;;8.75;5.57;;;19.30;57.00;;;;;;5039670;28;20578;-70
2021/06/07 08:05:16;;;;;;;9.25;5.38;;;19.30;56.00;;;;;;5038255;28;20041;-72
2021/06/07 08:07:42;;;;;;;10.48;5.75;;;19.50;56.50;;;;;;5039909;28;20085;-69
2021/06/07 08:10:09;;;;;;;9.40;6.25;;;19.80;56.20;;;;;;5037726;28;20068;-69
2021/06/07 08:12:35;;;;;;;9.60;5.45;;;19.80;55.20;;;;;;5041474;28;20028;-68
2021/06/07 08:15:01;;;;;;;10.05;4.55;;;20.10;53.60;;;;;;5039808;28;20045;-69
2021/06/07 08:17:27;;;;;;;8.73;4.85;;;20.60;52.60;;;;;;5036716;28;20064;-69
2021/06/07 08:19:52;;;;;;;9.05;5.70;;;20.60;52.40;;;;;;5039288;28;20132;-69
2021/06/07 08:22:19;;;;;;;11.57;5.88;;;20.60;52.80;;;;;;5040366;28;20203;-69
2021/06/07 08:24:45;;;;;;;8.00;5.50;;;21.00;51.90;;;;;;5038230;28;20544;-70
2021/06/07 08:27:11;;;;;;;8.15;5.05;;;21.40;51.50;;;;;;5039282;28;20666;-70
2021/06/07 08:29:36;;;;;;;10.30;5.40;;;21.40;49.20;;;;;;5051644;28;20056;-70
2021/06/07 08:32:02;;;;;;;9.60;5.70;;;21.30;48.80;;;;;;5040285;28;20041;-69
2021/06/07 08:34:28;;;;;;;8.13;4.70;;;21.20;51.30;;;;;;5046642;28;20477;-68
2021/06/07 08:36:54;;;;;;;8.05;5.30;;;21.70;50.80;;;;;;5039632;28;20056;-70
2021/06/07 08:39:20;;;;;;;7.47;4.72;;;21.90;47.70;;;;;;5053606;28;20048;-68
2021/06/07 08:41:47;;;;;;;11.25;4.63;;;21.30;47.50;;;;;;5043851;28;20488;-68
2021/06/07 08:44:13;;;;;;;8.73;5.03;;;21.40;48.00;;;;;;5035436;28;20385;-69
2021/06/07 08:46:39;;;;;;;8.45;4.65;;;21.50;47.00;;;;;;5040846;28;20036;-69
2021/06/07 08:49:05;;;;;;;7.95;5.00;;;21.60;47.10;;;;;;5038895;28;20033;-69
2021/06/07 08:51:30;;;;;;;7.07;4.85;;;21.20;47.00;;;;;;5038404;28;20480;-69
2021/06/07 08:53:56;;;;;;;7.80;4.32;;;21.30;48.80;;;;;;5044636;28;20067;-70
2021/06/07 08:56:22;;;;;;;8.10;5.63;;;21.90;47.80;;;;;;5042548;28;20054;-68
2021/06/07 08:58:48;;;;;;;9.30;4.95;;;22.00;46.70;;;;;;5044436;28;20033;-69
2021/06/07 09:01:15;;;;;;;8.20;4.35;;;22.00;47.80;;;;;;5043263;28;20040;-68
2021/06/07 09:03:41;;;;;;;7.47;4.07;;;22.10;46.80;;;;;;5039959;28;20041;-69
2021/06/07 09:06:07;;;;;;;7.60;3.55;;;22.50;45.40;;;;;;5043734;28;20087;-69
2021/06/07 09:08:37;;;;;;;7.70;4.10;;;22.60;44.40;;;;;;5044222;28;20033;-69
2021/06/07 09:11:15;;;;;;;8.65;4.38;;;22.00;43.80;;;;;;5043987;28;20128;-69
2021/06/07 09:13:42;;;;;;;8.45;3.88;;;22.30;45.20;;;;;;5043506;28;20033;-69
2021/06/07 09:16:09;;;;;;;8.38;4.10;;;22.40;45.00;;;;;;5036347;28;20036;-70
2021/06/07 09:18:39;;;;;;;8.07;3.42;;;22.30;42.20;;;;;;5039502;28;20033;-70
2021/06/07 09:21:13;;;;;;;7.88;4.22;;;22.10;43.50;;;;;;5044148;28;20037;-72
2021/06/07 09:23:46;;;;;;;6.40;3.20;;;22.00;44.00;;;;;;5041087;28;20040;-69
2021/06/07 09:26:32;;;;;;;6.25;3.28;;;22.30;43.50;;;;;;5043330;28;20126;-68
2021/06/07 09:29:00;;;;;;;7.05;3.30;;;22.40;41.10;;;;;;5042139;28;20179;-69
2021/06/07 09:31:32;;;;;;;8.32;4.57;;;22.20;42.10;;;;;;5041435;28;20368;-68
2021/06/07 09:33:57;;;;;;;7.05;3.95;;;21.80;42.60;;;;;;5044388;28;20059;-69
2021/06/07 09:36:30;;;;;;;7.40;3.83;;;22.10;42.60;;;;;;5041436;28;20057;-69
2021/06/07 09:39:18;;;;;;;9.40;4.30;;;22.30;40.80;;;;;;5036603;28;20461;-70
2021/06/07 09:41:52;;;;;;;7.57;3.83;;;22.30;41.80;;;;;;5041591;28;20061;-69
2021/06/07 09:44:21;;;;;;;;;;;22.10;41.10;;;;;;5039002;28;20064;-70
2021/06/07 09:46:47;;;;;;;8.23;4.57;;;21.70;42.10;;;;;;5040781;28;19920;-71
2021/06/07 09:49:16;;;;;;;7.45;3.95;;;22.00;44.10;;;;;;5041770;28;20044;-71
2021/06/07 09:51:55;;;;;;;10.55;4.70;;;22.70;42.90;;;;;;5040531;28;20041;-71
2021/06/07 09:54:21;;;;;;;8.82;4.22;;;22.60;41.80;;;;;;5043573;28;20032;-69
2021/06/07 09:56:53;;;;;;;7.10;4.10;;;23.00;43.80;;;;;;5041108;28;20140;-70
2021/06/07 09:59:31;;;;;;;6.55;3.88;;;23.30;42.20;;;;;;5044530;28;20043;-69
2021/06/07 10:02:01;;;;;;;9.50;4.30;;;23.50;41.10;;;;;;5042339;28;20029;-69
2021/06/07 10:04:58;;;;;;;8.63;4.28;;;23.40;41.00;;;;;;5043642;28;20398;-70
2021/06/07 10:07:25;;;;;;;8.88;4.82;;;23.20;42.40;;;;;;5044053;28;20364;-69
2021/06/07 10:10:19;;;;;;;6.97;4.35;;;22.90;41.90;;;;;;5043469;28;20037;-72
2021/06/07 10:12:46;;;;;;;7.95;4.90;;;22.60;43.10;;;;;;5043378;28;20033;-69
2021/06/07 10:15:32;;;;;;;10.73;4.60;;;22.70;43.10;;;;;;5045266;28;20385;-70
2021/06/07 10:17:58;;;;;;;7.82;4.50;;;22.90;42.30;;;;;;5044769;28;20053;-68
2021/06/07 10:22:50;;;;;;;8.57;4.45;;;23.10;42.20;;;;;;5048194;28;20068;-69
2021/06/07 10:25:15;;;;;;;7.10;3.95;;;23.20;42.30;;;;;;5045816;28;20036;-70
2021/06/07 10:27:41;;;;;;;8.32;4.75;;;23.40;43.60;;;;;;5047800;28;20114;-69
2021/06/07 10:30:18;;;;;;;10.95;4.90;;;23.20;42.40;;;;;;5047967;28;20041;-69
2021/06/07 10:32:45;;;;;;;11.05;4.85;;;23.00;41.40;;;;;;5047909;28;21393;-68
2021/06/07 10:35:12;;;;;;;7.43;3.80;;;23.10;42.20;;;;;;5048635;28;20422;-69
2021/06/07 10:38:09;;;;;;;10.07;5.05;;;23.30;42.60;;;;;;5047475;28;20036;-70
2021/06/07 10:40:43;;;;;;;9.23;5.40;;;23.60;42.00;;;;;;5048429;28;20393;-69
2021/06/07 10:43:12;;;;;;;6.82;4.75;;;23.50;41.40;;;;;;5044685;28;20112;-69
2021/06/07 10:45:40;;;;;;;11.95;4.50;;;23.10;41.80;;;;;;5048470;28;20037;-71
2021/06/07 10:48:11;;;;;;;10.25;4.22;;;23.10;42.20;;;;;;5046274;28;20029;-69
2021/06/07 10:50:44;;;;;;;7.88;4.88;;;23.70;41.40;;;;;;5045627;28;20116;-69
2021/06/07 10:53:24;;;;;;;7.85;4.32;;;23.90;39.30;;;;;;5045319;28;20029;-69
2021/06/07 10:56:03;;;;;;;8.93;4.80;;;24.20;39.40;;;;;;5045009;28;20124;-69
2021/06/07 10:58:29;;;;;;;8.25;5.07;;;23.60;40.90;;;;;;5046124;28;20116;-69
2021/06/07 11:00:59;;;;;;;8.52;4.25;;;23.50;40.10;;;;;;5047966;28;20116;-70
2021/06/07 11:03:27;;;;;;;8.90;4.90;;;23.70;39.60;;;;;;5039482;28;20034;-69
2021/06/07 11:05:56;;;;;;;9.23;4.90;;;24.00;39.90;;;;;;5042158;28;20396;-68
2021/06/07 11:08:25;;;;;;;9.30;4.40;;;24.10;39.00;;;;;;5046057;28;20132;-69
2021/06/07 11:11:04;;;;;;;5.97;3.05;;;24.60;39.00;;;;;;5046347;28;20571;-69
2021/06/07 11:13:43;;;;;;;7.82;3.80;;;24.00;37.30;;;;;;5043459;28;20037;-69
2021/06/07 11:16:09;;;;;;;8.65;3.88;;;23.80;37.20;;;;;;5043286;28;20482;-69
2021/06/07 11:18:37;;;;;;;8.88;4.00;;;24.10;37.60;;;;;;5042124;28;20516;-69
2021/06/07 11:21:27;;;;;;;12.30;4.88;;;24.20;38.80;;;;;;5047196;28;20104;-69
2021/06/07 11:23:53;;;;;;;8.93;3.40;;;24.30;39.50;;;;;;5044176;28;20033;-70
2021/06/07 11:26:21;;;;;;;6.03;3.20;;;24.30;37.10;;;;;;5046745;28;20099;-70
2021/06/07 11:29:04;;;;;;;6.65;3.30;;;24.50;36.20;;;;;;5044326;28;20056;-69
2021/06/07 11:31:33;;;;;;;7.57;3.37;;;24.70;36.30;;;;;;5040444;28;20388;-69
2021/06/07 11:34:07;;;;;;;7.78;3.30;;;25.00;36.80;;;;;;5040476;28;20378;-69
2021/06/07 11:36:42;;;;;;;8.50;3.25;;;25.00;35.10;;;;;;5043981;28;20496;-70
2021/06/07 11:39:17;;;;;;;10.70;3.33;;;24.90;35.20;;;;;;5043735;28;20033;-69
2021/06/07 11:41:42;;;;;;;5.97;3.50;;;25.00;35.20;;;;;;5043616;28;20126;-69
2021/06/07 11:44:09;;;;;;;7.57;3.30;;;25.10;35.00;;;;;;5043914;28;20071;-69
2021/06/07 11:46:54;;;;;;;5.63;3.00;;;24.90;36.10;;;;;;5042802;28;20396;-69
2021/06/07 11:49:20;;;;;;;7.03;3.10;;;24.70;36.40;;;;;;5047399;28;20033;-69
2021/06/07 11:51:59;;;;;;;6.35;2.70;;;25.00;35.80;;;;;;5038759;28;20034;-71
2021/06/07 11:54:24;;;;;;;6.63;2.65;;;25.40;34.50;;;;;;5044094;28;20025;-70
2021/06/07 11:56:59;;;;;;;5.75;2.42;;;25.60;34.90;;;;;;5047330;28;20041;-69
2021/06/07 11:59:29;;;;;;;6.75;3.10;;;26.00;34.00;;;;;;5043327;28;20060;-69
2021/06/07 12:01:55;;;;;;;5.75;3.17;;;25.70;34.10;;;;;;5047180;28;20083;-70
2021/06/07 12:04:29;;;;;;;6.63;3.30;;;25.50;35.30;;;;;;5046699;28;20204;-69
2021/06/07 12:06:58;;;;;;;6.35;3.10;;;25.90;35.40;;;;;;5044011;28;20146;-71
2021/06/07 12:09:25;;;;;;;7.03;2.67;;;26.10;34.40;;;;;;5046685;28;20037;-69
2021/06/07 12:11:52;;;;;;;6.30;2.80;;;26.10;34.20;;;;;;5045029;28;20413;-70
2021/06/07 12:14:24;;;;;;;4.95;2.88;;;26.20;34.10;;;;;;5045610;28;20037;-69
2021/06/07 12:16:50;;;;;;;6.75;3.22;;;26.50;34.30;;;;;;5045852;28;20040;-69
2021/06/07 12:19:16;;;;;;;6.88;3.53;;;26.10;32.50;;;;;;5041836;28;20110;-69
2021/06/07 12:21:41;;;;;;;4.50;2.60;;;25.00;34.90;;;;;;5045214;28;20467;-70
2021/06/07 12:24:17;;;;;;;5.28;2.70;;;24.70;35.30;;;;;;5042363;28;20041;-69
2021/06/07 12:29:26;;;;;;;6.93;3.55;;;25.20;34.80;;;;;;5046283;28;20039;-70
2021/06/07 12:32:07;;;;;;;8.90;3.45;;;25.00;36.20;;;;;;5046843;28;20045;-69
2021/06/07 12:34:34;;;;;;;7.45;3.20;;;25.50;35.20;;;;;;5044344;28;20076;-70
2021/06/07 12:37:01;;;;;;;5.82;2.38;;;25.40;35.20;;;;;;5045653;28;20033;-70
2021/06/07 12:39:27;;;;;;;5.07;2.17;;;25.50;34.40;;;;;;5046679;28;20033;-72
2021/06/07 12:41:53;;;;;;;4.97;2.28;;;24.90;33.70;;;;;;5046302;28;20094;-69
2021/06/07 12:44:25;;;;;;;6.30;2.63;;;25.00;33.30;;;;;;5044845;28;20136;-70
2021/06/07 12:46:55;;;;;;;7.00;4.20;;;24.70;34.20;;;;;;5043317;28;20036;-69